sensor_id;sensor_type;location;lat;lon;timestamp;temperature;humidity
46139;DHT22;32398;49.112;8.598;2023-12-28T00:00:00;6.70;99.90
46139;DHT22;32398;49.112;8.598;2023-12-28T00:02:26;6.70;99.90
46139;DHT22;32398;49.112;8.598;2023-12-28T00:04:53;6.70;99.90
46139;DHT22;32398;49.112;8.598;2023-12-28T00:07:19;6.70;99.90
46139;DHT22;32398;49.112;8.598;2023-12-28T00:09:46;6.70;99.90
46139;DHT22;32398;49.112;8.598;2023-12-28T00:12:13;6.70;99.90
46139;DHT22;32398;49.112;8.598;2023-12-28T00:14:39;6.70;99.90
46139;DHT22;32398;49.112;8.598;2023-12-28T00:17:06;6.70;99.90
46139;DHT22;32398;49.112;8.598;2023-12-28T00:19:32;6.80;99.90
46139;DHT22;32398;49.112;8.598;2023-12-28T00:21:59;6.80;99.90
46139;DHT22;32398;49.112;8.598;2023-12-28T00:24:25;6.70;99.90
46139;DHT22;32398;49.112;8.598;2023-12-28T00:26:52;6.80;99.90
46139;DHT22;32398;49.112;8.598;2023-12-28T00:29:20;6.70;99.90
46139;DHT22;32398;49.112;8.598;2023-12-28T00:31:46;6.80;99.90
46139;DHT22;32398;49.112;8.598;2023-12-28T00:34:13;6.80;99.90
46139;DHT22;32398;49.112;8.598;2023-12-28T00:36:39;6.80;99.90
46139;DHT22;32398;49.112;8.598;2023-12-28T00:39:06;6.80;99.90
46139;DHT22;32398;49.112;8.598;2023-12-28T00:41:32;6.80;99.90
46139;DHT22;32398;49.112;8.598;2023-12-28T00:43:59;6.70;99.90
46139;DHT22;32398;49.112;8.598;2023-12-28T00:46:27;6.80;99.90
46139;DHT22;32398;49.112;8.598;2023-12-28T00:48:53;6.80;99.90
46139;DHT22;32398;49.112;8.598;2023-12-28T00:51:20;6.80;99.90
46139;DHT22;32398;49.112;8.598;2023-12-28T00:53:47;6.70;99.90
46139;DHT22;32398;49.112;8.598;2023-12-28T00:56:13;6.80;99.90
46139;DHT22;32398;49.112;8.598;2023-12-28T00:58:40;6.80;99.90
46139;DHT22;32398;49.112;8.598;2023-12-28T01:01:08;6.80;99.90
46139;DHT22;32398;49.112;8.598;2023-12-28T01:03:36;6.80;99.90
46139;DHT22;32398;49.112;8.598;2023-12-28T01:06:03;6.80;99.90
46139;DHT22;32398;49.112;8.598;2023-12-28T01:08:30;6.80;99.90
46139;DHT22;32398;49.112;8.598;2023-12-28T01:10:59;6.80;99.90
46139;DHT22;32398;49.112;8.598;2023-12-28T01:13:25;6.80;99.80
46139;DHT22;32398;49.112;8.598;2023-12-28T01:15:52;6.80;99.70
46139;DHT22;32398;49.112;8.598;2023-12-28T01:18:19;6.80;99.70
46139;DHT22;32398;49.112;8.598;2023-12-28T01:20:46;6.80;99.60
46139;DHT22;32398;49.112;8.598;2023-12-28T01:23:13;6.80;99.40
46139;DHT22;32398;49.112;8.598;2023-12-28T01:25:39;6.80;99.30
46139;DHT22;32398;49.112;8.598;2023-12-28T01:28:06;6.80;99.30
46139;DHT22;32398;49.112;8.598;2023-12-28T01:30:32;6.80;99.20
46139;DHT22;32398;49.112;8.598;2023-12-28T01:32:59;6.80;98.80
46139;DHT22;32398;49.112;8.598;2023-12-28T01:35:26;6.90;98.40
46139;DHT22;32398;49.112;8.598;2023-12-28T01:37:54;6.90;98.00
46139;DHT22;32398;49.112;8.598;2023-12-28T01:40:21;6.90;97.70
46139;DHT22;32398;49.112;8.598;2023-12-28T01:42:47;6.90;97.60
46139;DHT22;32398;49.112;8.598;2023-12-28T01:45:13;6.90;97.50
46139;DHT22;32398;49.112;8.598;2023-12-28T01:47:39;6.90;97.30
46139;DHT22;32398;49.112;8.598;2023-12-28T01:50:06;6.90;97.10
46139;DHT22;32398;49.112;8.598;2023-12-28T01:52:33;7.00;97.10
46139;DHT22;32398;49.112;8.598;2023-12-28T01:55:01;7.00;97.00
46139;DHT22;32398;49.112;8.598;2023-12-28T01:57:28;7.00;97.10
46139;DHT22;32398;49.112;8.598;2023-12-28T01:59:55;7.00;97.20
46139;DHT22;32398;49.112;8.598;2023-12-28T02:02:21;7.00;97.00
46139;DHT22;32398;49.112;8.598;2023-12-28T02:04:48;7.00;96.80
46139;DHT22;32398;49.112;8.598;2023-12-28T02:07:15;7.00;96.50
46139;DHT22;32398;49.112;8.598;2023-12-28T02:09:42;7.10;96.60
46139;DHT22;32398;49.112;8.598;2023-12-28T02:12:09;7.10;96.50
46139;DHT22;32398;49.112;8.598;2023-12-28T02:14:36;7.10;96.50
46139;DHT22;32398;49.112;8.598;2023-12-28T02:17:03;7.10;96.40
46139;DHT22;32398;49.112;8.598;2023-12-28T02:19:31;7.10;96.50
46139;DHT22;32398;49.112;8.598;2023-12-28T02:21:59;7.20;96.30
46139;DHT22;32398;49.112;8.598;2023-12-28T02:24:25;7.20;96.10
46139;DHT22;32398;49.112;8.598;2023-12-28T02:26:53;7.20;95.90
46139;DHT22;32398;49.112;8.598;2023-12-28T02:29:20;7.20;95.80
46139;DHT22;32398;49.112;8.598;2023-12-28T02:31:48;7.30;95.60
46139;DHT22;32398;49.112;8.598;2023-12-28T02:34:19;7.30;95.50
46139;DHT22;32398;49.112;8.598;2023-12-28T02:36:48;7.30;95.80
46139;DHT22;32398;49.112;8.598;2023-12-28T02:39:16;7.40;95.80
46139;DHT22;32398;49.112;8.598;2023-12-28T02:41:42;7.40;95.50
46139;DHT22;32398;49.112;8.598;2023-12-28T02:44:11;7.40;95.30
46139;DHT22;32398;49.112;8.598;2023-12-28T02:46:38;7.50;95.30
46139;DHT22;32398;49.112;8.598;2023-12-28T02:49:05;7.50;95.50
46139;DHT22;32398;49.112;8.598;2023-12-28T02:51:32;7.50;95.70
46139;DHT22;32398;49.112;8.598;2023-12-28T02:53:58;7.50;95.80
46139;DHT22;32398;49.112;8.598;2023-12-28T02:56:25;7.60;95.90
46139;DHT22;32398;49.112;8.598;2023-12-28T02:58:51;7.60;96.30
46139;DHT22;32398;49.112;8.598;2023-12-28T03:01:19;7.50;96.30
46139;DHT22;32398;49.112;8.598;2023-12-28T03:03:46;7.60;96.00
46139;DHT22;32398;49.112;8.598;2023-12-28T03:06:12;7.60;96.30
46139;DHT22;32398;49.112;8.598;2023-12-28T03:08:38;7.60;96.60
46139;DHT22;32398;49.112;8.598;2023-12-28T03:11:04;7.60;96.40
46139;DHT22;32398;49.112;8.598;2023-12-28T03:13:31;7.60;96.60
46139;DHT22;32398;49.112;8.598;2023-12-28T03:15:57;7.70;96.80
46139;DHT22;32398;49.112;8.598;2023-12-28T03:18:25;7.70;96.60
46139;DHT22;32398;49.112;8.598;2023-12-28T03:20:52;7.70;96.60
46139;DHT22;32398;49.112;8.598;2023-12-28T03:23:18;7.70;96.90
46139;DHT22;32398;49.112;8.598;2023-12-28T03:25:45;7.80;97.10
46139;DHT22;32398;49.112;8.598;2023-12-28T03:28:11;7.70;96.90
46139;DHT22;32398;49.112;8.598;2023-12-28T03:30:38;7.80;97.30
46139;DHT22;32398;49.112;8.598;2023-12-28T03:33:04;7.80;97.50
46139;DHT22;32398;49.112;8.598;2023-12-28T03:35:32;7.80;97.80
46139;DHT22;32398;49.112;8.598;2023-12-28T03:37:59;7.80;98.00
46139;DHT22;32398;49.112;8.598;2023-12-28T03:40:26;7.80;98.20
46139;DHT22;32398;49.112;8.598;2023-12-28T03:42:52;7.80;98.30
46139;DHT22;32398;49.112;8.598;2023-12-28T03:45:19;7.80;98.50
46139;DHT22;32398;49.112;8.598;2023-12-28T03:47:45;7.80;98.80
46139;DHT22;32398;49.112;8.598;2023-12-28T03:50:12;7.90;98.80
46139;DHT22;32398;49.112;8.598;2023-12-28T03:52:40;7.90;99.10
46139;DHT22;32398;49.112;8.598;2023-12-28T03:55:07;7.80;99.20
46139;DHT22;32398;49.112;8.598;2023-12-28T03:57:33;7.80;99.20
46139;DHT22;32398;49.112;8.598;2023-12-28T04:00:00;7.90;99.10
46139;DHT22;32398;49.112;8.598;2023-12-28T04:02:26;7.80;99.10
46139;DHT22;32398;49.112;8.598;2023-12-28T04:04:56;7.90;99.10
46139;DHT22;32398;49.112;8.598;2023-12-28T04:07:24;7.80;99.00
46139;DHT22;32398;49.112;8.598;2023-12-28T04:09:51;7.80;99.00
46139;DHT22;32398;49.112;8.598;2023-12-28T04:12:18;7.80;99.10
46139;DHT22;32398;49.112;8.598;2023-12-28T04:14:44;7.80;99.10
46139;DHT22;32398;49.112;8.598;2023-12-28T04:17:11;7.80;99.10
46139;DHT22;32398;49.112;8.598;2023-12-28T04:19:38;7.80;99.70
46139;DHT22;32398;49.112;8.598;2023-12-28T04:22:04;7.80;99.40
46139;DHT22;32398;49.112;8.598;2023-12-28T04:24:31;7.80;99.60
46139;DHT22;32398;49.112;8.598;2023-12-28T04:26:59;7.80;99.70
46139;DHT22;32398;49.112;8.598;2023-12-28T04:29:26;7.80;99.80
46139;DHT22;32398;49.112;8.598;2023-12-28T04:31:52;7.80;99.80
46139;DHT22;32398;49.112;8.598;2023-12-28T04:34:19;7.80;99.90
46139;DHT22;32398;49.112;8.598;2023-12-28T04:36:45;7.80;99.90
46139;DHT22;32398;49.112;8.598;2023-12-28T04:39:14;7.80;99.90
46139;DHT22;32398;49.112;8.598;2023-12-28T04:41:40;7.70;99.90
46139;DHT22;32398;49.112;8.598;2023-12-28T04:44:08;7.80;99.90
46139;DHT22;32398;49.112;8.598;2023-12-28T04:46:37;7.70;99.90
46139;DHT22;32398;49.112;8.598;2023-12-28T04:49:03;7.80;99.90
46139;DHT22;32398;49.112;8.598;2023-12-28T04:51:30;7.80;99.90
46139;DHT22;32398;49.112;8.598;2023-12-28T04:53:56;7.70;99.90
46139;DHT22;32398;49.112;8.598;2023-12-28T04:56:23;7.80;99.90
46139;DHT22;32398;49.112;8.598;2023-12-28T04:58:49;7.80;99.90
46139;DHT22;32398;49.112;8.598;2023-12-28T05:01:17;7.80;99.90
46139;DHT22;32398;49.112;8.598;2023-12-28T05:03:44;7.70;99.90
46139;DHT22;32398;49.112;8.598;2023-12-28T05:06:10;7.80;99.90
46139;DHT22;32398;49.112;8.598;2023-12-28T05:08:37;7.80;99.90
46139;DHT22;32398;49.112;8.598;2023-12-28T05:11:05;7.80;99.90
46139;DHT22;32398;49.112;8.598;2023-12-28T05:13:31;7.80;99.90
46139;DHT22;32398;49.112;8.598;2023-12-28T05:16:00;7.80;99.90
46139;DHT22;32398;49.112;8.598;2023-12-28T05:18:28;7.80;99.90
46139;DHT22;32398;49.112;8.598;2023-12-28T05:20:54;7.70;99.90
46139;DHT22;32398;49.112;8.598;2023-12-28T05:23:21;7.80;99.90
46139;DHT22;32398;49.112;8.598;2023-12-28T05:25:48;7.70;99.90
46139;DHT22;32398;49.112;8.598;2023-12-28T05:28:14;7.70;99.90
46139;DHT22;32398;49.112;8.598;2023-12-28T05:30:41;7.80;99.90
46139;DHT22;32398;49.112;8.598;2023-12-28T05:33:07;7.80;99.90
46139;DHT22;32398;49.112;8.598;2023-12-28T05:35:35;7.70;99.90
46139;DHT22;32398;49.112;8.598;2023-12-28T05:38:02;7.80;99.90
46139;DHT22;32398;49.112;8.598;2023-12-28T05:40:28;7.80;99.90
46139;DHT22;32398;49.112;8.598;2023-12-28T05:42:55;7.80;99.90
46139;DHT22;32398;49.112;8.598;2023-12-28T05:45:21;7.80;99.90
46139;DHT22;32398;49.112;8.598;2023-12-28T05:47:48;7.80;99.90
46139;DHT22;32398;49.112;8.598;2023-12-28T05:50:15;7.80;99.90
46139;DHT22;32398;49.112;8.598;2023-12-28T05:52:43;7.80;99.90
46139;DHT22;32398;49.112;8.598;2023-12-28T05:55:10;7.70;99.90
46139;DHT22;32398;49.112;8.598;2023-12-28T05:57:36;7.80;99.90
46139;DHT22;32398;49.112;8.598;2023-12-28T06:00:03;7.80;99.90
46139;DHT22;32398;49.112;8.598;2023-12-28T06:02:31;7.80;99.90
46139;DHT22;32398;49.112;8.598;2023-12-28T06:04:58;7.70;99.90
46139;DHT22;32398;49.112;8.598;2023-12-28T06:07:24;7.80;99.90
46139;DHT22;32398;49.112;8.598;2023-12-28T06:09:52;7.70;99.90
46139;DHT22;32398;49.112;8.598;2023-12-28T06:12:19;7.70;99.90
46139;DHT22;32398;49.112;8.598;2023-12-28T06:14:45;7.70;99.90
46139;DHT22;32398;49.112;8.598;2023-12-28T06:17:12;7.80;99.90
46139;DHT22;32398;49.112;8.598;2023-12-28T06:19:40;7.80;99.90
46139;DHT22;32398;49.112;8.598;2023-12-28T06:22:06;7.70;99.90
46139;DHT22;32398;49.112;8.598;2023-12-28T06:24:33;7.70;99.90
46139;DHT22;32398;49.112;8.598;2023-12-28T06:27:05;7.70;99.90
46139;DHT22;32398;49.112;8.598;2023-12-28T06:29:31;7.70;99.90
46139;DHT22;32398;49.112;8.598;2023-12-28T06:31:58;7.70;99.90
46139;DHT22;32398;49.112;8.598;2023-12-28T06:34:24;7.70;99.90
46139;DHT22;32398;49.112;8.598;2023-12-28T06:36:51;7.80;99.90
46139;DHT22;32398;49.112;8.598;2023-12-28T06:39:18;7.70;99.90
46139;DHT22;32398;49.112;8.598;2023-12-28T06:41:46;7.70;99.90
46139;DHT22;32398;49.112;8.598;2023-12-28T06:44:14;7.70;99.90
46139;DHT22;32398;49.112;8.598;2023-12-28T06:46:40;7.80;99.90
46139;DHT22;32398;49.112;8.598;2023-12-28T06:49:07;7.70;99.90
46139;DHT22;32398;49.112;8.598;2023-12-28T06:51:33;7.70;99.90
46139;DHT22;32398;49.112;8.598;2023-12-28T06:54:00;7.70;99.90
46139;DHT22;32398;49.112;8.598;2023-12-28T06:56:27;7.70;99.90
46139;DHT22;32398;49.112;8.598;2023-12-28T06:58:53;7.70;99.90
46139;DHT22;32398;49.112;8.598;2023-12-28T07:01:21;7.60;99.90
46139;DHT22;32398;49.112;8.598;2023-12-28T07:03:48;7.70;99.90
46139;DHT22;32398;49.112;8.598;2023-12-28T07:06:14;7.70;99.90
46139;DHT22;32398;49.112;8.598;2023-12-28T07:08:41;7.70;99.90
46139;DHT22;32398;49.112;8.598;2023-12-28T07:11:09;7.70;99.90
46139;DHT22;32398;49.112;8.598;2023-12-28T07:13:35;7.70;99.90
46139;DHT22;32398;49.112;8.598;2023-12-28T07:16:02;7.70;99.90
46139;DHT22;32398;49.112;8.598;2023-12-28T07:18:30;7.70;99.90
46139;DHT22;32398;49.112;8.598;2023-12-28T07:20:57;7.70;99.90
46139;DHT22;32398;49.112;8.598;2023-12-28T07:23:23;7.70;99.90
46139;DHT22;32398;49.112;8.598;2023-12-28T07:25:50;7.70;99.90
46139;DHT22;32398;49.112;8.598;2023-12-28T07:28:16;7.70;99.90
46139;DHT22;32398;49.112;8.598;2023-12-28T07:30:43;7.70;99.90
46139;DHT22;32398;49.112;8.598;2023-12-28T07:33:10;7.70;99.90
46139;DHT22;32398;49.112;8.598;2023-12-28T07:35:37;7.70;99.90
46139;DHT22;32398;49.112;8.598;2023-12-28T07:38:04;7.70;99.90
46139;DHT22;32398;49.112;8.598;2023-12-28T07:40:31;7.70;99.90
46139;DHT22;32398;49.112;8.598;2023-12-28T07:42:58;7.70;99.90
46139;DHT22;32398;49.112;8.598;2023-12-28T07:45:26;7.70;99.90
46139;DHT22;32398;49.112;8.598;2023-12-28T07:47:52;7.70;99.90
46139;DHT22;32398;49.112;8.598;2023-12-28T07:50:19;7.70;99.90
46139;DHT22;32398;49.112;8.598;2023-12-28T07:52:48;7.70;99.90
46139;DHT22;32398;49.112;8.598;2023-12-28T07:55:15;7.70;99.90
46139;DHT22;32398;49.112;8.598;2023-12-28T07:57:41;7.70;99.90
46139;DHT22;32398;49.112;8.598;2023-12-28T08:00:08;7.70;99.90
46139;DHT22;32398;49.112;8.598;2023-12-28T08:02:35;7.60;99.90
46139;DHT22;32398;49.112;8.598;2023-12-28T08:05:01;7.70;99.90
46139;DHT22;32398;49.112;8.598;2023-12-28T08:07:28;7.70;99.90
46139;DHT22;32398;49.112;8.598;2023-12-28T08:09:56;7.70;99.90
46139;DHT22;32398;49.112;8.598;2023-12-28T08:12:22;7.70;99.90
46139;DHT22;32398;49.112;8.598;2023-12-28T08:14:49;7.70;99.90
46139;DHT22;32398;49.112;8.598;2023-12-28T08:17:16;7.80;99.90
46139;DHT22;32398;49.112;8.598;2023-12-28T08:19:42;7.80;99.90
46139;DHT22;32398;49.112;8.598;2023-12-28T08:22:09;7.80;99.90
46139;DHT22;32398;49.112;8.598;2023-12-28T08:24:36;7.80;99.90
46139;DHT22;32398;49.112;8.598;2023-12-28T08:27:04;7.80;99.90
46139;DHT22;32398;49.112;8.598;2023-12-28T08:29:30;7.90;99.90
46139;DHT22;32398;49.112;8.598;2023-12-28T08:31:57;7.90;99.90
46139;DHT22;32398;49.112;8.598;2023-12-28T08:34:24;7.90;99.90
46139;DHT22;32398;49.112;8.598;2023-12-28T08:36:51;7.90;99.90
46139;DHT22;32398;49.112;8.598;2023-12-28T08:39:17;7.90;99.90
46139;DHT22;32398;49.112;8.598;2023-12-28T08:41:44;7.90;99.90
46139;DHT22;32398;49.112;8.598;2023-12-28T08:44:12;7.90;99.90
46139;DHT22;32398;49.112;8.598;2023-12-28T08:46:38;7.90;99.90
46139;DHT22;32398;49.112;8.598;2023-12-28T08:49:05;7.90;99.90
46139;DHT22;32398;49.112;8.598;2023-12-28T08:51:31;7.90;99.90
46139;DHT22;32398;49.112;8.598;2023-12-28T08:53:58;7.90;99.90
46139;DHT22;32398;49.112;8.598;2023-12-28T08:56:24;7.90;99.90
46139;DHT22;32398;49.112;8.598;2023-12-28T08:58:51;7.90;99.90
46139;DHT22;32398;49.112;8.598;2023-12-28T09:01:21;8.00;99.90
46139;DHT22;32398;49.112;8.598;2023-12-28T09:03:47;8.00;99.90
46139;DHT22;32398;49.112;8.598;2023-12-28T09:06:14;7.90;99.90
46139;DHT22;32398;49.112;8.598;2023-12-28T09:08:41;8.00;99.90
46139;DHT22;32398;49.112;8.598;2023-12-28T09:11:09;7.90;99.90
46139;DHT22;32398;49.112;8.598;2023-12-28T09:13:35;8.00;99.90
46139;DHT22;32398;49.112;8.598;2023-12-28T09:16:02;7.90;99.90
46139;DHT22;32398;49.112;8.598;2023-12-28T09:18:30;8.00;99.90
46139;DHT22;32398;49.112;8.598;2023-12-28T09:20:57;8.00;99.90
46139;DHT22;32398;49.112;8.598;2023-12-28T09:23:23;7.90;99.90
46139;DHT22;32398;49.112;8.598;2023-12-28T09:25:50;8.00;99.90
46139;DHT22;32398;49.112;8.598;2023-12-28T09:28:16;8.00;99.90
46139;DHT22;32398;49.112;8.598;2023-12-28T09:30:43;8.00;99.90
46139;DHT22;32398;49.112;8.598;2023-12-28T09:33:10;8.00;99.90
46139;DHT22;32398;49.112;8.598;2023-12-28T09:35:38;8.00;99.90
46139;DHT22;32398;49.112;8.598;2023-12-28T09:38:04;7.90;99.90
46139;DHT22;32398;49.112;8.598;2023-12-28T09:40:31;8.00;99.90
46139;DHT22;32398;49.112;8.598;2023-12-28T09:43:01;8.00;99.90
46139;DHT22;32398;49.112;8.598;2023-12-28T09:45:31;8.00;99.90
46139;DHT22;32398;49.112;8.598;2023-12-28T09:47:58;8.00;99.90
46139;DHT22;32398;49.112;8.598;2023-12-28T09:50:28;8.00;99.90
46139;DHT22;32398;49.112;8.598;2023-12-28T09:52:57;7.90;99.90
46139;DHT22;32398;49.112;8.598;2023-12-28T09:55:24;8.00;99.90
46139;DHT22;32398;49.112;8.598;2023-12-28T09:57:51;7.90;99.90
46139;DHT22;32398;49.112;8.598;2023-12-28T10:00:18;8.00;99.90
46139;DHT22;32398;49.112;8.598;2023-12-28T10:02:45;8.00;99.90
46139;DHT22;32398;49.112;8.598;2023-12-28T10:05:12;8.00;99.90
46139;DHT22;32398;49.112;8.598;2023-12-28T10:07:40;8.00;99.90
46139;DHT22;32398;49.112;8.598;2023-12-28T10:10:08;8.00;99.90
46139;DHT22;32398;49.112;8.598;2023-12-28T10:12:35;8.00;99.90
46139;DHT22;32398;49.112;8.598;2023-12-28T10:15:02;8.00;99.90
46139;DHT22;32398;49.112;8.598;2023-12-28T10:17:29;8.00;99.90
46139;DHT22;32398;49.112;8.598;2023-12-28T10:19:56;8.00;99.90
46139;DHT22;32398;49.112;8.598;2023-12-28T10:22:29;8.00;99.90
46139;DHT22;32398;49.112;8.598;2023-12-28T10:24:55;8.00;99.90
46139;DHT22;32398;49.112;8.598;2023-12-28T10:27:23;8.00;99.90
46139;DHT22;32398;49.112;8.598;2023-12-28T10:29:52;8.00;99.90
46139;DHT22;32398;49.112;8.598;2023-12-28T10:32:19;8.00;99.90
46139;DHT22;32398;49.112;8.598;2023-12-28T10:34:45;8.00;99.90
46139;DHT22;32398;49.112;8.598;2023-12-28T10:37:12;8.00;99.90
46139;DHT22;32398;49.112;8.598;2023-12-28T10:39:39;8.00;99.90
46139;DHT22;32398;49.112;8.598;2023-12-28T10:42:09;8.00;99.90
46139;DHT22;32398;49.112;8.598;2023-12-28T10:44:38;8.00;99.90
46139;DHT22;32398;49.112;8.598;2023-12-28T10:47:08;8.00;99.90
46139;DHT22;32398;49.112;8.598;2023-12-28T10:49:38;8.00;99.90
46139;DHT22;32398;49.112;8.598;2023-12-28T10:52:06;8.10;99.90
46139;DHT22;32398;49.112;8.598;2023-12-28T10:54:36;8.10;99.90
46139;DHT22;32398;49.112;8.598;2023-12-28T10:57:05;8.00;99.90
46139;DHT22;32398;49.112;8.598;2023-12-28T10:59:41;8.10;99.90
46139;DHT22;32398;49.112;8.598;2023-12-28T11:02:11;8.10;99.90
46139;DHT22;32398;49.112;8.598;2023-12-28T11:04:39;8.10;99.90
46139;DHT22;32398;49.112;8.598;2023-12-28T11:07:07;8.10;99.90
46139;DHT22;32398;49.112;8.598;2023-12-28T11:09:35;8.10;99.90
46139;DHT22;32398;49.112;8.598;2023-12-28T11:12:02;8.10;99.90
46139;DHT22;32398;49.112;8.598;2023-12-28T11:14:30;8.10;99.90
46139;DHT22;32398;49.112;8.598;2023-12-28T11:16:57;8.00;99.90
46139;DHT22;32398;49.112;8.598;2023-12-28T11:19:26;8.10;99.90
46139;DHT22;32398;49.112;8.598;2023-12-28T11:21:53;8.10;99.90
46139;DHT22;32398;49.112;8.598;2023-12-28T11:24:21;8.10;99.90
46139;DHT22;32398;49.112;8.598;2023-12-28T11:26:51;8.10;99.90
46139;DHT22;32398;49.112;8.598;2023-12-28T11:29:18;8.10;99.90
46139;DHT22;32398;49.112;8.598;2023-12-28T11:31:50;8.10;99.90
46139;DHT22;32398;49.112;8.598;2023-12-28T11:34:17;8.10;99.90
46139;DHT22;32398;49.112;8.598;2023-12-28T11:36:47;8.10;99.90
46139;DHT22;32398;49.112;8.598;2023-12-28T11:39:18;8.10;99.90
46139;DHT22;32398;49.112;8.598;2023-12-28T11:41:46;8.10;99.90
46139;DHT22;32398;49.112;8.598;2023-12-28T11:44:12;8.10;99.90
46139;DHT22;32398;49.112;8.598;2023-12-28T11:46:39;8.10;99.90
46139;DHT22;32398;49.112;8.598;2023-12-28T11:49:06;8.10;99.90
46139;DHT22;32398;49.112;8.598;2023-12-28T11:51:33;8.20;99.90
46139;DHT22;32398;49.112;8.598;2023-12-28T11:54:02;8.20;99.90
46139;DHT22;32398;49.112;8.598;2023-12-28T11:56:29;8.10;99.90
46139;DHT22;32398;49.112;8.598;2023-12-28T11:58:55;8.20;99.90
46139;DHT22;32398;49.112;8.598;2023-12-28T12:01:22;8.20;99.90
46139;DHT22;32398;49.112;8.598;2023-12-28T12:03:48;8.20;99.90
46139;DHT22;32398;49.112;8.598;2023-12-28T12:06:15;8.20;99.90
46139;DHT22;32398;49.112;8.598;2023-12-28T12:08:44;8.20;99.90
46139;DHT22;32398;49.112;8.598;2023-12-28T12:11:12;8.20;99.90
46139;DHT22;32398;49.112;8.598;2023-12-28T12:13:38;8.20;99.90
46139;DHT22;32398;49.112;8.598;2023-12-28T12:16:05;8.20;99.90
46139;DHT22;32398;49.112;8.598;2023-12-28T12:18:32;8.20;99.90
46139;DHT22;32398;49.112;8.598;2023-12-28T12:20:59;8.20;99.90
46139;DHT22;32398;49.112;8.598;2023-12-28T12:23:26;8.20;99.90
46139;DHT22;32398;49.112;8.598;2023-12-28T12:25:52;8.20;99.90
46139;DHT22;32398;49.112;8.598;2023-12-28T12:28:20;8.20;99.90
46139;DHT22;32398;49.112;8.598;2023-12-28T12:30:50;8.20;99.90
46139;DHT22;32398;49.112;8.598;2023-12-28T12:33:17;8.20;99.90
46139;DHT22;32398;49.112;8.598;2023-12-28T12:35:44;8.20;99.90
46139;DHT22;32398;49.112;8.598;2023-12-28T12:38:11;8.30;99.90
46139;DHT22;32398;49.112;8.598;2023-12-28T12:40:37;8.30;99.90
46139;DHT22;32398;49.112;8.598;2023-12-28T12:43:04;8.30;99.90
46139;DHT22;32398;49.112;8.598;2023-12-28T12:45:35;8.20;99.90
46139;DHT22;32398;49.112;8.598;2023-12-28T12:48:02;8.20;99.90
46139;DHT22;32398;49.112;8.598;2023-12-28T12:50:29;8.20;99.90
46139;DHT22;32398;49.112;8.598;2023-12-28T12:52:55;8.20;99.90
46139;DHT22;32398;49.112;8.598;2023-12-28T12:55:22;8.20;99.90
46139;DHT22;32398;49.112;8.598;2023-12-28T12:57:50;8.30;99.90
46139;DHT22;32398;49.112;8.598;2023-12-28T13:00:21;8.30;99.90
46139;DHT22;32398;49.112;8.598;2023-12-28T13:02:50;8.20;99.90
46139;DHT22;32398;49.112;8.598;2023-12-28T13:05:18;8.20;99.90
46139;DHT22;32398;49.112;8.598;2023-12-28T13:07:45;8.30;99.90
46139;DHT22;32398;49.112;8.598;2023-12-28T13:10:11;8.30;99.90
46139;DHT22;32398;49.112;8.598;2023-12-28T13:12:38;8.30;99.90
46139;DHT22;32398;49.112;8.598;2023-12-28T13:15:05;8.20;99.90
46139;DHT22;32398;49.112;8.598;2023-12-28T13:17:31;8.20;99.90
46139;DHT22;32398;49.112;8.598;2023-12-28T13:19:59;8.30;99.90
46139;DHT22;32398;49.112;8.598;2023-12-28T13:22:25;8.30;99.90
46139;DHT22;32398;49.112;8.598;2023-12-28T13:24:52;8.30;99.90
46139;DHT22;32398;49.112;8.598;2023-12-28T13:27:18;8.30;99.90
46139;DHT22;32398;49.112;8.598;2023-12-28T13:29:45;8.30;99.90
46139;DHT22;32398;49.112;8.598;2023-12-28T13:32:12;8.30;99.90
46139;DHT22;32398;49.112;8.598;2023-12-28T13:34:39;8.30;99.90
46139;DHT22;32398;49.112;8.598;2023-12-28T13:37:07;8.30;99.90
46139;DHT22;32398;49.112;8.598;2023-12-28T13:39:33;8.30;99.90
46139;DHT22;32398;49.112;8.598;2023-12-28T13:42:04;8.30;99.90
46139;DHT22;32398;49.112;8.598;2023-12-28T13:44:32;8.20;99.90
46139;DHT22;32398;49.112;8.598;2023-12-28T13:46:58;8.20;99.90
46139;DHT22;32398;49.112;8.598;2023-12-28T13:49:25;8.30;99.90
46139;DHT22;32398;49.112;8.598;2023-12-28T13:51:52;8.20;99.90
46139;DHT22;32398;49.112;8.598;2023-12-28T13:54:20;8.30;99.90
46139;DHT22;32398;49.112;8.598;2023-12-28T13:56:47;8.30;99.90
46139;DHT22;32398;49.112;8.598;2023-12-28T13:59:14;8.30;99.90
46139;DHT22;32398;49.112;8.598;2023-12-28T14:01:40;8.30;99.90
46139;DHT22;32398;49.112;8.598;2023-12-28T14:04:07;8.30;99.90
46139;DHT22;32398;49.112;8.598;2023-12-28T14:06:33;8.30;99.90
46139;DHT22;32398;49.112;8.598;2023-12-28T14:09:00;8.30;99.90
46139;DHT22;32398;49.112;8.598;2023-12-28T14:11:28;8.30;99.90
46139;DHT22;32398;49.112;8.598;2023-12-28T14:13:54;8.30;99.90
46139;DHT22;32398;49.112;8.598;2023-12-28T14:16:21;8.30;99.90
46139;DHT22;32398;49.112;8.598;2023-12-28T14:18:47;8.30;99.90
46139;DHT22;32398;49.112;8.598;2023-12-28T14:21:14;8.30;99.90
46139;DHT22;32398;49.112;8.598;2023-12-28T14:23:41;8.30;99.90
46139;DHT22;32398;49.112;8.598;2023-12-28T14:26:09;8.30;99.90
46139;DHT22;32398;49.112;8.598;2023-12-28T14:28:39;8.30;99.90
46139;DHT22;32398;49.112;8.598;2023-12-28T14:31:07;8.30;99.90
46139;DHT22;32398;49.112;8.598;2023-12-28T14:33:34;8.30;99.90
46139;DHT22;32398;49.112;8.598;2023-12-28T14:36:01;8.30;99.90
46139;DHT22;32398;49.112;8.598;2023-12-28T14:38:27;8.30;99.90
46139;DHT22;32398;49.112;8.598;2023-12-28T14:40:54;8.30;99.90
46139;DHT22;32398;49.112;8.598;2023-12-28T14:43:22;8.30;99.90
46139;DHT22;32398;49.112;8.598;2023-12-28T14:45:50;8.30;99.90
46139;DHT22;32398;49.112;8.598;2023-12-28T14:48:18;8.30;99.90
46139;DHT22;32398;49.112;8.598;2023-12-28T14:50:44;8.30;99.90
46139;DHT22;32398;49.112;8.598;2023-12-28T14:53:11;8.30;99.90
46139;DHT22;32398;49.112;8.598;2023-12-28T14:55:38;8.30;99.90
46139;DHT22;32398;49.112;8.598;2023-12-28T14:58:04;8.30;99.90
46139;DHT22;32398;49.112;8.598;2023-12-28T15:00:31;8.30;99.90
46139;DHT22;32398;49.112;8.598;2023-12-28T15:02:58;8.30;99.90
46139;DHT22;32398;49.112;8.598;2023-12-28T15:05:25;8.30;99.90
46139;DHT22;32398;49.112;8.598;2023-12-28T15:07:52;8.30;99.90
46139;DHT22;32398;49.112;8.598;2023-12-28T15:10:19;8.30;99.90
46139;DHT22;32398;49.112;8.598;2023-12-28T15:12:46;8.30;99.90
46139;DHT22;32398;49.112;8.598;2023-12-28T15:15:13;8.30;99.90
46139;DHT22;32398;49.112;8.598;2023-12-28T15:17:40;8.30;99.90
46139;DHT22;32398;49.112;8.598;2023-12-28T15:20:08;8.30;99.90
46139;DHT22;32398;49.112;8.598;2023-12-28T15:22:36;8.30;99.90
46139;DHT22;32398;49.112;8.598;2023-12-28T15:25:03;8.30;99.90
46139;DHT22;32398;49.112;8.598;2023-12-28T15:27:31;8.30;99.90
46139;DHT22;32398;49.112;8.598;2023-12-28T15:29:58;8.30;99.90
46139;DHT22;32398;49.112;8.598;2023-12-28T15:32:24;8.30;99.90
46139;DHT22;32398;49.112;8.598;2023-12-28T15:34:51;8.30;99.90
46139;DHT22;32398;49.112;8.598;2023-12-28T15:37:18;8.30;99.90
46139;DHT22;32398;49.112;8.598;2023-12-28T15:39:45;8.30;99.90
46139;DHT22;32398;49.112;8.598;2023-12-28T15:42:12;8.30;99.90